sensor_id;sensor_type;location;lat;lon;timestamp;P1;durP1;ratioP1;P2;durP2;ratioP2
51384;SDS011;37478;55.682;37.462;2023-02-11T00:00:07;20.40;;;9.30;;
51384;SDS011;37478;55.682;37.462;2023-02-11T00:02:32;18.55;;;9.70;;
51384;SDS011;37478;55.682;37.462;2023-02-11T00:04:58;26.58;;;9.68;;
51384;SDS011;37478;55.682;37.462;2023-02-11T00:07:27;17.25;;;9.05;;
51384;SDS011;37478;55.682;37.462;2023-02-11T00:09:52;21.27;;;9.40;;
51384;SDS011;37478;55.682;37.462;2023-02-11T00:12:18;20.30;;;8.93;;
51384;SDS011;37478;55.682;37.462;2023-02-11T00:14:43;18.95;;;8.77;;
51384;SDS011;37478;55.682;37.462;2023-02-11T00:17:08;25.52;;;8.43;;
51384;SDS011;37478;55.682;37.462;2023-02-11T00:19:34;19.45;;;10.52;;
51384;SDS011;37478;55.682;37.462;2023-02-11T00:22:00;20.55;;;10.02;;
51384;SDS011;37478;55.682;37.462;2023-02-11T00:24:26;21.85;;;10.07;;
51384;SDS011;37478;55.682;37.462;2023-02-11T00:26:51;17.35;;;7.95;;
51384;SDS011;37478;55.682;37.462;2023-02-11T00:29:16;18.23;;;8.88;;
51384;SDS011;37478;55.682;37.462;2023-02-11T00:31:42;17.52;;;7.43;;
51384;SDS011;37478;55.682;37.462;2023-02-11T00:34:07;20.60;;;8.52;;
51384;SDS011;37478;55.682;37.462;2023-02-11T00:36:32;22.70;;;8.98;;
51384;SDS011;37478;55.682;37.462;2023-02-11T00:38:58;13.55;;;7.68;;
51384;SDS011;37478;55.682;37.462;2023-02-11T00:41:23;19.42;;;8.13;;
51384;SDS011;37478;55.682;37.462;2023-02-11T00:43:50;24.42;;;9.57;;
51384;SDS011;37478;55.682;37.462;2023-02-11T00:46:15;19.00;;;8.02;;
51384;SDS011;37478;55.682;37.462;2023-02-11T00:48:41;20.20;;;9.07;;
51384;SDS011;37478;55.682;37.462;2023-02-11T00:51:06;24.08;;;8.18;;
51384;SDS011;37478;55.682;37.462;2023-02-11T00:53:32;16.27;;;7.90;;
51384;SDS011;37478;55.682;37.462;2023-02-11T00:55:57;15.70;;;8.43;;
51384;SDS011;37478;55.682;37.462;2023-02-11T00:58:23;19.88;;;7.70;;
51384;SDS011;37478;55.682;37.462;2023-02-11T01:00:48;14.40;;;7.25;;
51384;SDS011;37478;55.682;37.462;2023-02-11T01:03:13;16.13;;;7.35;;
51384;SDS011;37478;55.682;37.462;2023-02-11T01:05:39;15.23;;;7.57;;
51384;SDS011;37478;55.682;37.462;2023-02-11T01:08:04;16.48;;;7.18;;
51384;SDS011;37478;55.682;37.462;2023-02-11T01:10:29;14.27;;;7.72;;
51384;SDS011;37478;55.682;37.462;2023-02-11T01:12:55;15.50;;;8.95;;
51384;SDS011;37478;55.682;37.462;2023-02-11T01:15:20;15.45;;;7.03;;
51384;SDS011;37478;55.682;37.462;2023-02-11T01:17:46;15.25;;;7.05;;
51384;SDS011;37478;55.682;37.462;2023-02-11T01:20:18;14.23;;;7.10;;
51384;SDS011;37478;55.682;37.462;2023-02-11T01:22:44;13.05;;;6.47;;
51384;SDS011;37478;55.682;37.462;2023-02-11T01:25:10;17.50;;;7.20;;
51384;SDS011;37478;55.682;37.462;2023-02-11T01:27:35;17.83;;;7.22;;
51384;SDS011;37478;55.682;37.462;2023-02-11T01:30:01;15.18;;;6.80;;
51384;SDS011;37478;55.682;37.462;2023-02-11T01:32:27;16.02;;;6.80;;
51384;SDS011;37478;55.682;37.462;2023-02-11T01:34:52;13.25;;;6.38;;
51384;SDS011;37478;55.682;37.462;2023-02-11T01:37:17;12.85;;;6.45;;
51384;SDS011;37478;55.682;37.462;2023-02-11T01:39:43;16.77;;;6.38;;
51384;SDS011;37478;55.682;37.462;2023-02-11T01:42:18;13.48;;;5.85;;
51384;SDS011;37478;55.682;37.462;2023-02-11T01:44:44;12.02;;;5.60;;
51384;SDS011;37478;55.682;37.462;2023-02-11T01:47:09;18.10;;;6.07;;
51384;SDS011;37478;55.682;37.462;2023-02-11T01:49:35;19.48;;;6.35;;
51384;SDS011;37478;55.682;37.462;2023-02-11T01:52:04;11.23;;;5.35;;
51384;SDS011;37478;55.682;37.462;2023-02-11T01:54:31;12.40;;;6.28;;
51384;SDS011;37478;55.682;37.462;2023-02-11T01:57:17;13.55;;;5.75;;
51384;SDS011;37478;55.682;37.462;2023-02-11T02:02:15;10.70;;;5.80;;
51384;SDS011;37478;55.682;37.462;2023-02-11T02:04:43;14.15;;;5.90;;
51384;SDS011;37478;55.682;37.462;2023-02-11T02:07:13;12.82;;;5.55;;
51384;SDS011;37478;55.682;37.462;2023-02-11T02:09:42;7.78;;;4.90;;
51384;SDS011;37478;55.682;37.462;2023-02-11T02:12:08;10.68;;;5.60;;
51384;SDS011;37478;55.682;37.462;2023-02-11T02:14:36;10.65;;;5.13;;
51384;SDS011;37478;55.682;37.462;2023-02-11T02:17:01;11.57;;;5.32;;
51384;SDS011;37478;55.682;37.462;2023-02-11T02:19:37;10.68;;;5.72;;
51384;SDS011;37478;55.682;37.462;2023-02-11T02:27:35;13.75;;;6.25;;
51384;SDS011;37478;55.682;37.462;2023-02-11T02:32:49;12.45;;;5.65;;
51384;SDS011;37478;55.682;37.462;2023-02-11T02:40:30;12.13;;;5.45;;
51384;SDS011;37478;55.682;37.462;2023-02-11T02:42:56;11.48;;;5.22;;
51384;SDS011;37478;55.682;37.462;2023-02-11T02:45:22;12.32;;;5.70;;
51384;SDS011;37478;55.682;37.462;2023-02-11T02:47:48;16.23;;;5.28;;
51384;SDS011;37478;55.682;37.462;2023-02-11T02:50:13;12.75;;;4.63;;
51384;SDS011;37478;55.682;37.462;2023-02-11T02:55:23;13.35;;;4.10;;
51384;SDS011;37478;55.682;37.462;2023-02-11T03:03:20;7.47;;;3.85;;
51384;SDS011;37478;55.682;37.462;2023-02-11T03:10:44;8.15;;;4.60;;
51384;SDS011;37478;55.682;37.462;2023-02-11T03:13:10;10.30;;;4.28;;
51384;SDS011;37478;55.682;37.462;2023-02-11T03:15:38;11.10;;;4.43;;
51384;SDS011;37478;55.682;37.462;2023-02-11T03:18:04;10.70;;;4.65;;
51384;SDS011;37478;55.682;37.462;2023-02-11T03:20:32;7.72;;;4.03;;
51384;SDS011;37478;55.682;37.462;2023-02-11T03:23:03;14.82;;;4.53;;
51384;SDS011;37478;55.682;37.462;2023-02-11T03:25:31;8.60;;;4.50;;
51384;SDS011;37478;55.682;37.462;2023-02-11T03:28:12;8.05;;;4.57;;
51384;SDS011;37478;55.682;37.462;2023-02-11T03:30:46;10.63;;;4.90;;
51384;SDS011;37478;55.682;37.462;2023-02-11T03:33:16;10.25;;;3.60;;
51384;SDS011;37478;55.682;37.462;2023-02-11T03:35:55;11.80;;;3.78;;
51384;SDS011;37478;55.682;37.462;2023-02-11T03:38:27;8.27;;;4.20;;
51384;SDS011;37478;55.682;37.462;2023-02-11T03:40:55;8.50;;;3.67;;
51384;SDS011;37478;55.682;37.462;2023-02-11T03:43:25;12.45;;;4.38;;
51384;SDS011;37478;55.682;37.462;2023-02-11T03:45:51;6.47;;;3.83;;
51384;SDS011;37478;55.682;37.462;2023-02-11T03:48:22;10.70;;;4.00;;
51384;SDS011;37478;55.682;37.462;2023-02-11T03:50:49;5.40;;;3.55;;
51384;SDS011;37478;55.682;37.462;2023-02-11T03:53:15;9.77;;;4.28;;
51384;SDS011;37478;55.682;37.462;2023-02-11T03:55:41;12.57;;;5.40;;
51384;SDS011;37478;55.682;37.462;2023-02-11T03:58:07;5.40;;;3.28;;
51384;SDS011;37478;55.682;37.462;2023-02-11T04:00:33;11.25;;;4.47;;
51384;SDS011;37478;55.682;37.462;2023-02-11T04:02:59;9.30;;;4.18;;
51384;SDS011;37478;55.682;37.462;2023-02-11T04:05:25;7.40;;;4.43;;
51384;SDS011;37478;55.682;37.462;2023-02-11T04:07:50;5.47;;;3.70;;
51384;SDS011;37478;55.682;37.462;2023-02-11T04:10:15;5.93;;;3.65;;
51384;SDS011;37478;55.682;37.462;2023-02-11T04:12:40;14.68;;;4.47;;
51384;SDS011;37478;55.682;37.462;2023-02-11T04:15:06;7.10;;;3.85;;
51384;SDS011;37478;55.682;37.462;2023-02-11T04:17:31;10.52;;;3.95;;
51384;SDS011;37478;55.682;37.462;2023-02-11T04:19:57;6.68;;;3.25;;
51384;SDS011;37478;55.682;37.462;2023-02-11T04:22:22;6.20;;;2.65;;
51384;SDS011;37478;55.682;37.462;2023-02-11T04:24:47;9.23;;;4.00;;
51384;SDS011;37478;55.682;37.462;2023-02-11T04:27:13;12.95;;;4.80;;
51384;SDS011;37478;55.682;37.462;2023-02-11T04:29:38;11.30;;;4.85;;
51384;SDS011;37478;55.682;37.462;2023-02-11T04:32:03;8.90;;;4.18;;
51384;SDS011;37478;55.682;37.462;2023-02-11T04:34:29;13.82;;;3.88;;
51384;SDS011;37478;55.682;37.462;2023-02-11T04:36:54;10.43;;;4.15;;
51384;SDS011;37478;55.682;37.462;2023-02-11T04:39:19;7.80;;;3.65;;
51384;SDS011;37478;55.682;37.462;2023-02-11T04:41:45;8.55;;;3.42;;
51384;SDS011;37478;55.682;37.462;2023-02-11T04:44:10;4.70;;;3.33;;
51384;SDS011;37478;55.682;37.462;2023-02-11T04:46:35;7.45;;;3.35;;
51384;SDS011;37478;55.682;37.462;2023-02-11T04:49:00;9.45;;;4.13;;
51384;SDS011;37478;55.682;37.462;2023-02-11T04:51:26;6.80;;;3.70;;
51384;SDS011;37478;55.682;37.462;2023-02-11T04:53:51;8.23;;;3.30;;
51384;SDS011;37478;55.682;37.462;2023-02-11T04:56:16;10.18;;;3.92;;
51384;SDS011;37478;55.682;37.462;2023-02-11T04:58:42;6.00;;;3.25;;
51384;SDS011;37478;55.682;37.462;2023-02-11T05:01:08;9.85;;;3.45;;
51384;SDS011;37478;55.682;37.462;2023-02-11T05:03:33;7.82;;;3.60;;
51384;SDS011;37478;55.682;37.462;2023-02-11T05:05:59;6.50;;;3.67;;
51384;SDS011;37478;55.682;37.462;2023-02-11T05:08:24;8.13;;;3.70;;
51384;SDS011;37478;55.682;37.462;2023-02-11T05:10:50;6.15;;;3.45;;
51384;SDS011;37478;55.682;37.462;2023-02-11T05:13:15;6.03;;;3.70;;
51384;SDS011;37478;55.682;37.462;2023-02-11T05:15:40;5.28;;;3.28;;
51384;SDS011;37478;55.682;37.462;2023-02-11T05:18:05;9.70;;;3.95;;
51384;SDS011;37478;55.682;37.462;2023-02-11T05:20:31;7.65;;;3.47;;
51384;SDS011;37478;55.682;37.462;2023-02-11T05:22:56;9.15;;;3.22;;
51384;SDS011;37478;55.682;37.462;2023-02-11T05:25:21;9.50;;;3.55;;
51384;SDS011;37478;55.682;37.462;2023-02-11T05:27:47;11.02;;;4.00;;
51384;SDS011;37478;55.682;37.462;2023-02-11T05:30:12;6.00;;;3.05;;
51384;SDS011;37478;55.682;37.462;2023-02-11T05:32:37;14.13;;;3.85;;
51384;SDS011;37478;55.682;37.462;2023-02-11T05:35:03;10.63;;;3.75;;
51384;SDS011;37478;55.682;37.462;2023-02-11T05:37:28;7.97;;;3.88;;
51384;SDS011;37478;55.682;37.462;2023-02-11T05:39:53;11.93;;;4.45;;
51384;SDS011;37478;55.682;37.462;2023-02-11T05:42:19;9.77;;;4.43;;
51384;SDS011;37478;55.682;37.462;2023-02-11T05:44:44;6.63;;;4.05;;
51384;SDS011;37478;55.682;37.462;2023-02-11T05:47:09;9.43;;;4.57;;
51384;SDS011;37478;55.682;37.462;2023-02-11T05:49:35;9.20;;;4.85;;
51384;SDS011;37478;55.682;37.462;2023-02-11T05:52:00;7.32;;;3.70;;
51384;SDS011;37478;55.682;37.462;2023-02-11T05:54:25;9.02;;;4.47;;
51384;SDS011;37478;55.682;37.462;2023-02-11T05:56:51;8.45;;;3.90;;
51384;SDS011;37478;55.682;37.462;2023-02-11T05:59:16;10.32;;;4.47;;
51384;SDS011;37478;55.682;37.462;2023-02-11T06:01:41;7.72;;;4.18;;
51384;SDS011;37478;55.682;37.462;2023-02-11T06:04:07;12.18;;;5.57;;
51384;SDS011;37478;55.682;37.462;2023-02-11T06:06:32;15.55;;;5.60;;
51384;SDS011;37478;55.682;37.462;2023-02-11T06:08:57;12.27;;;5.20;;
51384;SDS011;37478;55.682;37.462;2023-02-11T06:11:23;10.80;;;5.35;;
51384;SDS011;37478;55.682;37.462;2023-02-11T06:13:48;9.43;;;4.93;;
51384;SDS011;37478;55.682;37.462;2023-02-11T06:16:13;15.55;;;5.70;;
51384;SDS011;37478;55.682;37.462;2023-02-11T06:18:39;12.23;;;5.38;;
51384;SDS011;37478;55.682;37.462;2023-02-11T06:21:07;8.88;;;4.85;;
51384;SDS011;37478;55.682;37.462;2023-02-11T06:23:33;8.07;;;4.40;;
51384;SDS011;37478;55.682;37.462;2023-02-11T06:26:04;9.40;;;5.68;;
51384;SDS011;37478;55.682;37.462;2023-02-11T06:28:29;9.43;;;4.15;;
51384;SDS011;37478;55.682;37.462;2023-02-11T06:30:55;10.05;;;5.25;;
51384;SDS011;37478;55.682;37.462;2023-02-11T06:33:21;10.60;;;5.20;;
51384;SDS011;37478;55.682;37.462;2023-02-11T06:35:46;10.00;;;4.32;;
51384;SDS011;37478;55.682;37.462;2023-02-11T06:38:12;11.35;;;4.55;;
51384;SDS011;37478;55.682;37.462;2023-02-11T06:40:37;9.70;;;5.28;;
51384;SDS011;37478;55.682;37.462;2023-02-11T06:43:02;7.50;;;4.15;;
51384;SDS011;37478;55.682;37.462;2023-02-11T06:45:28;10.73;;;5.65;;
51384;SDS011;37478;55.682;37.462;2023-02-11T06:47:53;10.30;;;4.38;;
51384;SDS011;37478;55.682;37.462;2023-02-11T06:50:18;14.65;;;4.68;;
51384;SDS011;37478;55.682;37.462;2023-02-11T06:52:44;17.08;;;6.72;;
51384;SDS011;37478;55.682;37.462;2023-02-11T06:55:09;16.08;;;5.20;;
51384;SDS011;37478;55.682;37.462;2023-02-11T06:57:34;8.02;;;4.57;;
51384;SDS011;37478;55.682;37.462;2023-02-11T07:00:00;9.50;;;4.20;;
51384;SDS011;37478;55.682;37.462;2023-02-11T07:02:25;9.50;;;5.43;;
51384;SDS011;37478;55.682;37.462;2023-02-11T07:04:50;12.15;;;5.20;;
51384;SDS011;37478;55.682;37.462;2023-02-11T07:07:16;12.18;;;4.75;;
51384;SDS011;37478;55.682;37.462;2023-02-11T07:09:41;13.52;;;4.88;;
51384;SDS011;37478;55.682;37.462;2023-02-11T07:12:08;7.93;;;4.95;;
51384;SDS011;37478;55.682;37.462;2023-02-11T07:14:33;12.30;;;5.38;;
51384;SDS011;37478;55.682;37.462;2023-02-11T07:16:58;12.85;;;5.18;;
51384;SDS011;37478;55.682;37.462;2023-02-11T07:19:24;15.43;;;4.88;;
51384;SDS011;37478;55.682;37.462;2023-02-11T07:21:49;10.52;;;5.32;;
51384;SDS011;37478;55.682;37.462;2023-02-11T07:24:14;15.95;;;5.13;;
51384;SDS011;37478;55.682;37.462;2023-02-11T07:26:40;14.60;;;5.20;;
51384;SDS011;37478;55.682;37.462;2023-02-11T07:29:05;13.45;;;6.10;;
51384;SDS011;37478;55.682;37.462;2023-02-11T07:31:31;12.52;;;5.57;;
51384;SDS011;37478;55.682;37.462;2023-02-11T07:33:58;13.30;;;5.95;;
51384;SDS011;37478;55.682;37.462;2023-02-11T07:36:24;10.90;;;6.20;;
51384;SDS011;37478;55.682;37.462;2023-02-11T07:38:49;14.05;;;6.20;;
51384;SDS011;37478;55.682;37.462;2023-02-11T07:41:16;14.63;;;6.07;;
51384;SDS011;37478;55.682;37.462;2023-02-11T07:43:42;12.10;;;7.28;;
51384;SDS011;37478;55.682;37.462;2023-02-11T07:46:14;12.05;;;5.63;;
51384;SDS011;37478;55.682;37.462;2023-02-11T07:48:40;9.60;;;5.60;;
51384;SDS011;37478;55.682;37.462;2023-02-11T07:53:30;13.35;;;5.97;;
51384;SDS011;37478;55.682;37.462;2023-02-11T07:55:56;14.77;;;5.38;;
51384;SDS011;37478;55.682;37.462;2023-02-11T07:58:21;14.50;;;5.50;;
51384;SDS011;37478;55.682;37.462;2023-02-11T08:00:46;9.77;;;5.85;;
51384;SDS011;37478;55.682;37.462;2023-02-11T08:03:11;12.40;;;5.60;;
51384;SDS011;37478;55.682;37.462;2023-02-11T08:05:37;25.92;;;6.47;;
51384;SDS011;37478;55.682;37.462;2023-02-11T08:08:03;7.55;;;5.50;;
51384;SDS011;37478;55.682;37.462;2023-02-11T08:10:31;11.52;;;5.90;;
51384;SDS011;37478;55.682;37.462;2023-02-11T08:12:57;15.35;;;5.32;;
51384;SDS011;37478;55.682;37.462;2023-02-11T08:15:22;13.13;;;5.55;;
51384;SDS011;37478;55.682;37.462;2023-02-11T08:17:47;15.10;;;6.13;;
51384;SDS011;37478;55.682;37.462;2023-02-11T08:20:12;15.02;;;6.32;;
51384;SDS011;37478;55.682;37.462;2023-02-11T08:22:38;12.80;;;6.28;;
51384;SDS011;37478;55.682;37.462;2023-02-11T08:25:03;20.20;;;5.95;;
51384;SDS011;37478;55.682;37.462;2023-02-11T08:27:28;9.98;;;5.10;;
51384;SDS011;37478;55.682;37.462;2023-02-11T08:29:54;12.30;;;6.72;;
51384;SDS011;37478;55.682;37.462;2023-02-11T08:32:19;13.45;;;6.45;;
51384;SDS011;37478;55.682;37.462;2023-02-11T08:34:45;11.80;;;5.72;;
51384;SDS011;37478;55.682;37.462;2023-02-11T08:37:10;13.65;;;6.55;;
51384;SDS011;37478;55.682;37.462;2023-02-11T08:39:35;19.75;;;7.35;;
51384;SDS011;37478;55.682;37.462;2023-02-11T08:42:01;13.90;;;6.10;;
51384;SDS011;37478;55.682;37.462;2023-02-11T08:44:26;16.80;;;7.88;;
51384;SDS011;37478;55.682;37.462;2023-02-11T08:46:51;10.27;;;5.88;;
51384;SDS011;37478;55.682;37.462;2023-02-11T08:49:17;14.23;;;5.82;;
51384;SDS011;37478;55.682;37.462;2023-02-11T08:51:43;9.23;;;5.47;;
51384;SDS011;37478;55.682;37.462;2023-02-11T08:54:08;9.88;;;4.32;;
51384;SDS011;37478;55.682;37.462;2023-02-11T08:56:34;13.23;;;4.85;;
51384;SDS011;37478;55.682;37.462;2023-02-11T08:58:59;12.18;;;5.60;;
51384;SDS011;37478;55.682;37.462;2023-02-11T09:01:26;13.52;;;5.15;;
51384;SDS011;37478;55.682;37.462;2023-02-11T09:03:52;13.20;;;5.65;;
51384;SDS011;37478;55.682;37.462;2023-02-11T09:06:17;14.35;;;7.22;;
51384;SDS011;37478;55.682;37.462;2023-02-11T09:08:44;16.40;;;5.75;;
51384;SDS011;37478;55.682;37.462;2023-02-11T09:11:09;9.63;;;5.35;;
51384;SDS011;37478;55.682;37.462;2023-02-11T09:13:35;8.85;;;5.35;;
51384;SDS011;37478;55.682;37.462;2023-02-11T09:16:00;10.45;;;5.18;;
51384;SDS011;37478;55.682;37.462;2023-02-11T09:18:26;11.95;;;5.70;;
51384;SDS011;37478;55.682;37.462;2023-02-11T09:20:52;13.30;;;5.05;;
51384;SDS011;37478;55.682;37.462;2023-02-11T09:23:17;16.52;;;5.40;;
51384;SDS011;37478;55.682;37.462;2023-02-11T09:25:43;12.02;;;5.70;;
51384;SDS011;37478;55.682;37.462;2023-02-11T09:28:08;8.35;;;4.93;;
51384;SDS011;37478;55.682;37.462;2023-02-11T09:30:35;8.13;;;5.10;;
51384;SDS011;37478;55.682;37.462;2023-02-11T09:33:00;9.27;;;5.15;;
51384;SDS011;37478;55.682;37.462;2023-02-11T09:35:25;14.02;;;5.75;;
51384;SDS011;37478;55.682;37.462;2023-02-11T09:37:50;9.25;;;4.63;;
51384;SDS011;37478;55.682;37.462;2023-02-11T09:40:16;14.38;;;5.55;;
51384;SDS011;37478;55.682;37.462;2023-02-11T09:45:17;23.77;;;6.53;;
51384;SDS011;37478;55.682;37.462;2023-02-11T09:48:25;11.63;;;5.30;;
51384;SDS011;37478;55.682;37.462;2023-02-11T09:50:36;12.05;;;6.35;;
51384;SDS011;37478;55.682;37.462;2023-02-11T09:53:05;15.15;;;5.95;;
51384;SDS011;37478;55.682;37.462;2023-02-11T09:55:35;10.95;;;5.50;;
51384;SDS011;37478;55.682;37.462;2023-02-11T09:58:11;12.20;;;5.93;;
51384;SDS011;37478;55.682;37.462;2023-02-11T10:00:45;7.88;;;4.82;;
51384;SDS011;37478;55.682;37.462;2023-02-11T10:10:52;12.88;;;5.55;;
51384;SDS011;37478;55.682;37.462;2023-02-11T10:13:24;15.75;;;5.43;;
51384;SDS011;37478;55.682;37.462;2023-02-11T10:15:57;13.05;;;6.00;;
51384;SDS011;37478;55.682;37.462;2023-02-11T10:23:23;15.52;;;5.40;;
51384;SDS011;37478;55.682;37.462;2023-02-11T10:25:53;14.70;;;6.72;;
51384;SDS011;37478;55.682;37.462;2023-02-11T10:28:21;12.80;;;5.70;;
51384;SDS011;37478;55.682;37.462;2023-02-11T10:30:54;16.38;;;5.65;;
51384;SDS011;37478;55.682;37.462;2023-02-11T10:33:26;13.23;;;5.50;;
51384;SDS011;37478;55.682;37.462;2023-02-11T10:35:52;10.75;;;5.22;;
51384;SDS011;37478;55.682;37.462;2023-02-11T10:38:17;15.80;;;6.20;;
51384;SDS011;37478;55.682;37.462;2023-02-11T10:40:43;15.32;;;5.68;;
51384;SDS011;37478;55.682;37.462;2023-02-11T10:43:15;12.02;;;5.72;;
51384;SDS011;37478;55.682;37.462;2023-02-11T10:45:42;12.43;;;5.97;;
51384;SDS011;37478;55.682;37.462;2023-02-11T10:53:37;12.30;;;6.35;;
51384;SDS011;37478;55.682;37.462;2023-02-11T10:56:02;13.68;;;5.90;;
51384;SDS011;37478;55.682;37.462;2023-02-11T10:58:33;12.65;;;6.05;;
51384;SDS011;37478;55.682;37.462;2023-02-11T11:01:01;11.10;;;6.15;;
51384;SDS011;37478;55.682;37.462;2023-02-11T11:03:28;14.93;;;6.35;;
51384;SDS011;37478;55.682;37.462;2023-02-11T11:05:58;12.43;;;6.35;;
51384;SDS011;37478;55.682;37.462;2023-02-11T11:11:22;12.02;;;6.20;;
51384;SDS011;37478;55.682;37.462;2023-02-11T11:16:17;15.60;;;6.88;;
51384;SDS011;37478;55.682;37.462;2023-02-11T11:18:47;14.25;;;7.25;;
51384;SDS011;37478;55.682;37.462;2023-02-11T11:21:46;15.32;;;8.05;;
51384;SDS011;37478;55.682;37.462;2023-02-11T11:24:04;16.10;;;6.90;;
51384;SDS011;37478;55.682;37.462;2023-02-11T11:26:40;17.45;;;7.00;;
51384;SDS011;37478;55.682;37.462;2023-02-11T11:29:07;14.98;;;7.95;;
51384;SDS011;37478;55.682;37.462;2023-02-11T11:31:34;15.55;;;6.55;;
51384;SDS011;37478;55.682;37.462;2023-02-11T11:34:02;16.10;;;6.75;;
51384;SDS011;37478;55.682;37.462;2023-02-11T11:36:34;14.07;;;6.40;;
51384;SDS011;37478;55.682;37.462;2023-02-11T11:39:01;14.23;;;6.75;;
51384;SDS011;37478;55.682;37.462;2023-02-11T11:41:29;14.10;;;6.82;;
51384;SDS011;37478;55.682;37.462;2023-02-11T11:46:31;15.05;;;6.93;;
51384;SDS011;37478;55.682;37.462;2023-02-11T11:49:02;17.55;;;6.45;;
51384;SDS011;37478;55.682;37.462;2023-02-11T11:51:30;11.77;;;6.30;;
51384;SDS011;37478;55.682;37.462;2023-02-11T11:53:57;16.08;;;6.03;;
51384;SDS011;37478;55.682;37.462;2023-02-11T11:56:25;13.32;;;6.85;;
51384;SDS011;37478;55.682;37.462;2023-02-11T11:58:52;12.10;;;6.68;;
51384;SDS011;37478;55.682;37.462;2023-02-11T12:01:41;14.02;;;6.75;;
51384;SDS011;37478;55.682;37.462;2023-02-11T12:09:34;12.93;;;7.00;;
51384;SDS011;37478;55.682;37.462;2023-02-11T12:17:15;18.00;;;7.43;;
51384;SDS011;37478;55.682;37.462;2023-02-11T12:50:09;18.33;;;7.32;;
51384;SDS011;37478;55.682;37.462;2023-02-11T12:55:13;18.42;;;6.35;;
51384;SDS011;37478;55.682;37.462;2023-02-11T12:57:41;15.52;;;7.45;;
51384;SDS011;37478;55.682;37.462;2023-02-11T13:05:18;15.48;;;7.50;;
51384;SDS011;37478;55.682;37.462;2023-02-11T13:07:46;16.42;;;7.70;;
51384;SDS011;37478;55.682;37.462;2023-02-11T13:10:21;17.98;;;7.18;;
51384;SDS011;37478;55.682;37.462;2023-02-11T13:12:47;18.73;;;8.55;;
51384;SDS011;37478;55.682;37.462;2023-02-11T13:15:32;14.70;;;8.18;;
51384;SDS011;37478;55.682;37.462;2023-02-11T13:18:04;16.08;;;8.48;;
51384;SDS011;37478;55.682;37.462;2023-02-11T13:20:48;12.68;;;7.22;;
51384;SDS011;37478;55.682;37.462;2023-02-11T13:23:22;16.52;;;7.32;;
51384;SDS011;37478;55.682;37.462;2023-02-11T13:25:54;15.95;;;7.28;;
51384;SDS011;37478;55.682;37.462;2023-02-11T13:30:50;13.43;;;6.80;;
51384;SDS011;37478;55.682;37.462;2023-02-11T13:33:33;14.13;;;7.05;;
51384;SDS011;37478;55.682;37.462;2023-02-11T13:38:24;18.85;;;8.45;;
51384;SDS011;37478;55.682;37.462;2023-02-11T13:43:22;27.95;;;9.88;;
51384;SDS011;37478;55.682;37.462;2023-02-11T13:45:48;16.85;;;8.20;;
51384;SDS011;37478;55.682;37.462;2023-02-11T13:48:16;18.25;;;8.52;;
51384;SDS011;37478;55.682;37.462;2023-02-11T13:50:45;14.77;;;7.72;;
51384;SDS011;37478;55.682;37.462;2023-02-11T13:53:12;18.75;;;8.55;;
51384;SDS011;37478;55.682;37.462;2023-02-11T13:55:37;23.02;;;10.20;;
51384;SDS011;37478;55.682;37.462;2023-02-11T14:00:52;19.02;;;7.90;;
51384;SDS011;37478;55.682;37.462;2023-02-11T14:03:30;23.95;;;9.85;;
51384;SDS011;37478;55.682;37.462;2023-02-11T14:06:16;18.42;;;8.75;;
51384;SDS011;37478;55.682;37.462;2023-02-11T14:11:46;19.33;;;9.38;;
51384;SDS011;37478;55.682;37.462;2023-02-11T14:14:25;18.77;;;8.82;;
51384;SDS011;37478;55.682;37.462;2023-02-11T14:17:36;25.45;;;9.82;;
51384;SDS011;37478;55.682;37.462;2023-02-11T14:19:40;22.60;;;8.80;;
51384;SDS011;37478;55.682;37.462;2023-02-11T14:24:50;17.83;;;9.25;;
51384;SDS011;37478;55.682;37.462;2023-02-11T14:32:32;20.10;;;10.52;;
51384;SDS011;37478;55.682;37.462;2023-02-11T14:40:25;31.92;;;11.65;;
51384;SDS011;37478;55.682;37.462;2023-02-11T14:42:52;19.08;;;9.18;;
51384;SDS011;37478;55.682;37.462;2023-02-11T14:45:27;22.02;;;8.85;;
51384;SDS011;37478;55.682;37.462;2023-02-11T14:48:01;18.90;;;7.65;;
51384;SDS011;37478;55.682;37.462;2023-02-11T14:50:31;20.80;;;10.57;;
51384;SDS011;37478;55.682;37.462;2023-02-11T14:52:57;20.67;;;9.20;;
51384;SDS011;37478;55.682;37.462;2023-02-11T14:55:32;21.00;;;10.07;;
51384;SDS011;37478;55.682;37.462;2023-02-11T14:58:31;28.17;;;10.68;;
51384;SDS011;37478;55.682;37.462;2023-02-11T15:00:51;25.17;;;8.73;;
51384;SDS011;37478;55.682;37.462;2023-02-11T15:03:24;23.77;;;9.18;;
51384;SDS011;37478;55.682;37.462;2023-02-11T15:06:00;19.20;;;10.35;;
51384;SDS011;37478;55.682;37.462;2023-02-11T15:08:26;22.88;;;9.18;;
51384;SDS011;37478;55.682;37.462;2023-02-11T15:10:52;24.23;;;9.35;;
51384;SDS011;37478;55.682;37.462;2023-02-11T15:13:19;17.20;;;9.73;;
51384;SDS011;37478;55.682;37.462;2023-02-11T15:15:46;18.23;;;8.43;;
51384;SDS011;37478;55.682;37.462;2023-02-11T15:18:18;21.88;;;8.18;;
51384;SDS011;37478;55.682;37.462;2023-02-11T15:20:46;18.40;;;8.90;;
51384;SDS011;37478;55.682;37.462;2023-02-11T15:23:21;28.98;;;8.93;;
51384;SDS011;37478;55.682;37.462;2023-02-11T15:25:48;21.42;;;9.02;;
51384;SDS011;37478;55.682;37.462;2023-02-11T15:28:33;23.25;;;9.23;;
51384;SDS011;37478;55.682;37.462;2023-02-11T15:31:02;26.33;;;11.07;;
51384;SDS011;37478;55.682;37.462;2023-02-11T15:33:28;17.45;;;8.20;;
51384;SDS011;37478;55.682;37.462;2023-02-11T15:35:54;21.80;;;8.35;;
51384;SDS011;37478;55.682;37.462;2023-02-11T15:38:20;21.20;;;9.65;;
51384;SDS011;37478;55.682;37.462;2023-02-11T15:40:53;23.52;;;8.52;;
51384;SDS011;37478;55.682;37.462;2023-02-11T15:43:19;22.60;;;8.07;;
51384;SDS011;37478;55.682;37.462;2023-02-11T15:45:52;24.85;;;8.05;;
51384;SDS011;37478;55.682;37.462;2023-02-11T15:49:04;22.48;;;8.85;;
51384;SDS011;37478;55.682;37.462;2023-02-11T15:51:07;22.83;;;8.73;;
51384;SDS011;37478;55.682;37.462;2023-02-11T15:53:36;25.50;;;8.75;;
51384;SDS011;37478;55.682;37.462;2023-02-11T15:58:36;18.58;;;9.00;;
51384;SDS011;37478;55.682;37.462;2023-02-11T16:01:01;22.25;;;8.77;;
51384;SDS011;37478;55.682;37.462;2023-02-11T16:03:27;19.38;;;8.35;;
51384;SDS011;37478;55.682;37.462;2023-02-11T16:05:56;21.55;;;8.85;;
51384;SDS011;37478;55.682;37.462;2023-02-11T16:08:27;19.52;;;8.32;;
51384;SDS011;37478;55.682;37.462;2023-02-11T16:11:01;23.25;;;7.60;;
51384;SDS011;37478;55.682;37.462;2023-02-11T16:13:28;28.08;;;8.73;;
51384;SDS011;37478;55.682;37.462;2023-02-11T16:16:00;20.60;;;8.07;;
51384;SDS011;37478;55.682;37.462;2023-02-11T16:18:37;23.48;;;9.70;;
51384;SDS011;37478;55.682;37.462;2023-02-11T16:21:03;13.13;;;7.27;;
51384;SDS011;37478;55.682;37.462;2023-02-11T16:23:33;20.55;;;7.50;;
51384;SDS011;37478;55.682;37.462;2023-02-11T16:26:00;24.83;;;8.88;;
51384;SDS011;37478;55.682;37.462;2023-02-11T16:28:26;14.18;;;7.10;;
51384;SDS011;37478;55.682;37.462;2023-02-11T16:30:52;19.40;;;8.85;;
51384;SDS011;37478;55.682;37.462;2023-02-11T16:33:18;26.60;;;8.48;;
51384;SDS011;37478;55.682;37.462;2023-02-11T16:35:43;19.20;;;8.70;;
51384;SDS011;37478;55.682;37.462;2023-02-11T16:38:11;20.67;;;8.35;;
51384;SDS011;37478;55.682;37.462;2023-02-11T16:40:37;21.60;;;8.48;;
51384;SDS011;37478;55.682;37.462;2023-02-11T16:43:02;18.00;;;8.70;;